createdAt,value
2022-10-02T00:10:04.086Z,52.5
2022-10-02T00:25:04.080Z,52.5
2022-10-02T00:40:03.134Z,52.5
2022-10-02T00:55:02.349Z,52.5
2022-10-02T01:10:02.137Z,52.5
2022-10-02T01:25:03.564Z,52.5
2022-10-02T01:40:04.234Z,52.5
2022-10-02T01:55:03.195Z,52.5
2022-10-02T02:10:06.289Z,52.5
2022-10-02T02:25:05.598Z,52.5
2022-10-02T02:40:03.442Z,52.5
2022-10-02T02:55:04.247Z,52.5
2022-10-02T03:10:02.278Z,52.5
2022-10-02T03:25:02.134Z,52.5
2022-10-02T03:40:02.553Z,52.5
2022-10-02T03:55:04.337Z,52
2022-10-02T04:10:03.282Z,52
2022-10-02T04:25:05.628Z,52
2022-10-02T04:40:02.484Z,52
2022-10-02T04:55:05.377Z,52.5
2022-10-02T05:10:03.165Z,52
2022-10-02T05:25:05.489Z,52
2022-10-02T05:40:06.560Z,52
2022-10-02T05:55:03.320Z,52
2022-10-02T06:10:03.548Z,51.5
2022-10-02T06:25:02.254Z,53
2022-10-02T06:40:06.590Z,52.5
2022-10-02T06:55:05.267Z,52
2022-10-02T07:10:04.622Z,52
2022-10-02T07:25:02.577Z,52
2022-10-02T07:45:05.503Z,52
2022-10-02T08:00:05.522Z,52
2022-10-02T08:15:06.538Z,52.5
2022-10-02T08:30:04.497Z,51.5
2022-10-02T08:45:06.527Z,51
2022-10-02T09:05:03.148Z,51.5
2022-10-02T09:20:03.421Z,51.5
2022-10-02T09:35:06.149Z,51
2022-10-02T09:50:05.545Z,51.5
2022-10-02T10:05:03.545Z,52
2022-10-02T10:20:04.264Z,53
2022-10-02T10:35:03.446Z,53
2022-10-02T10:50:03.112Z,53
2022-10-02T11:20:06.298Z,53
2022-10-02T11:35:02.428Z,54
2022-10-02T11:50:02.097Z,53.5
2022-10-02T12:05:02.349Z,54
2022-10-02T12:20:02.155Z,54.5
2022-10-02T12:35:06.460Z,54.5
2022-10-02T12:50:05.121Z,57.5
2022-10-02T13:05:03.546Z,59
2022-10-02T13:20:03.132Z,60
2022-10-02T13:35:05.340Z,58
2022-10-02T13:50:03.397Z,57.5
2022-10-02T14:05:02.448Z,57
2022-10-02T14:20:05.599Z,56.5
2022-10-02T14:35:02.395Z,56.5
2022-10-02T14:50:04.254Z,56
2022-10-02T15:05:06.378Z,55.5
2022-10-02T15:20:05.142Z,56
2022-10-02T15:35:04.091Z,55.5
2022-10-02T15:50:05.144Z,55
2022-10-02T16:05:05.472Z,54.5
2022-10-02T16:20:02.339Z,54.5
2022-10-02T16:35:03.571Z,55.5
2022-10-02T16:50:04.102Z,55.5
2022-10-02T17:05:02.207Z,55.5
2022-10-02T17:20:05.585Z,55.5
2022-10-02T17:35:03.467Z,55
2022-10-02T17:50:05.569Z,55
2022-10-02T18:05:06.437Z,54.5
2022-10-02T18:20:05.254Z,54.5
2022-10-02T18:35:05.322Z,54.5
2022-10-02T18:50:02.122Z,54.5
2022-10-02T19:05:03.494Z,54.5
2022-10-02T19:20:06.123Z,54.5
2022-10-02T19:35:06.269Z,54.5
2022-10-02T19:50:03.499Z,54
2022-10-02T20:05:02.595Z,54.5
2022-10-02T20:35:02.489Z,54
2022-10-02T20:50:02.377Z,54.5
2022-10-02T21:05:04.043Z,54.5
2022-10-02T21:20:06.253Z,54.5
2022-10-02T21:35:03.687Z,54
2022-10-02T21:50:06.102Z,54.5
2022-10-02T22:05:06.290Z,54
2022-10-02T22:20:02.190Z,54.5
2022-10-02T22:35:06.391Z,54.5
2022-10-02T22:50:04.727Z,54.5
2022-10-02T23:05:05.190Z,54.5
2022-10-02T23:20:06.512Z,54.5
2022-10-02T23:35:04.543Z,54.5
2022-10-02T23:50:06.560Z,54
